Isle of Coll, United Kingdom
Current Conditions -  °F | °C
As of 5:20 PM on Monday 22 Dec 2014 (Local Time) from EGPU Reporting Station
Few Clouds Few Clouds  
Wind Chill: 38°   Ceiling: Unl
Heat Index: 46°   Visibility: 6mi
Dew Point: 39°   Wind: 24mph
Humidity: 76%   Direction: 270°W
Pressure: 29.59"   Gusts: NA
Location:  56.62°N, 6.53°W
Report Text: EGPU 221720Z AUTO 27021KT 9999 FEW043/// 08/04 Q1002
Loading
Personal Weather Stations






























Interactive Weather Map New forecast layout! Learn more

10-Day Weather Forecast

Advertisements
Track Severe Weather on mobile